Flight Track Log - Related Links

Times and Time Zones

All times are in EDT time to prevent confusion due to time zone crossing. See the N9246F flight status page for this flight to view local times or setup timezone preferences in your user account.

Time Position Orientation Groundspeed Altitude Reporting Facility
EDT Latitude Longitude Course Direction KTS MPH feet Rate Location/Type
Thu 09:32:02 AM 27.6514 -80.4072 87° East 125 144 400  Level Miami Center
Thu 09:33:04 AM 27.6522 -80.3869 87° East 83 96 900 581 Climbing Miami Center
Thu 09:34:06 AM 27.6786 -80.3831 North 93 107 1,600 585 Climbing Miami Center
Thu 09:35:07 AM 27.7053 -80.3778 10° North 92 106 2,100 488 Climbing Miami Center
Thu 09:36:09 AM 27.7339 -80.3725 North 98 113 2,600 435 Climbing Miami Center
Thu 09:37:11 AM 27.7631 -80.3725 360° North 99 114 3,000 145 Climbing Miami Center
Thu 09:38:13 AM 27.7944 -80.3786 350° North 115 132 2,900  Descending Miami Center
Thu 09:39:14 AM 27.8278 -80.3844 351° North 115 132 3,000  Climbing Miami Center
Thu 09:40:16 AM 27.8636 -80.3914 350° North 120 138 2,900  Descending Miami Center
Thu 09:41:17 AM 27.8958 -80.3975 350° North 120 138 3,000 49 Climbing Miami Center
Thu 09:42:19 AM 27.9286 -80.4006 355° North 120 138 3,000  Level Miami Center
Thu 09:43:21 AM 27.9544 -80.4217 324° Northwest 120 138 3,000  Level Miami Center
Thu 09:44:22 AM 27.9778 -80.4472 316° Northwest 119 137 3,000  Level Miami Center
Thu 09:45:24 AM 28.0017 -80.4742 315° West 120 138 3,000  Level Miami Center
Thu 09:46:26 AM 28.0292 -80.5058 315° West 119 137 3,000  Level Miami Center
Thu 09:47:28 AM 28.0531 -80.5336 314° West 119 137 3,000  Level Miami Center
Thu 09:48:29 AM 28.0758 -80.5583 316° Northwest 119 137 3,000 195 Level Miami Center
Thu 09:49:31 AM 28.0989 -80.5847 315° West 116 133 3,400 435 Climbing Miami Center
Thu 09:50:33 AM 28.1189 -80.6081 314° West 104 120 3,900 293 Climbing Miami Center
Thu 09:51:34 AM 28.1389 -80.6292 317° Northwest 108 124 4,000 -115 Climbing Miami Center
Thu 09:52:17 AM 28.1500 -80.6500 301° West 114 131 3,700 -527 Descending Orlando TRACON
Thu 09:53:05 AM 28.1833 -80.6667 336° Northwest 112 129 3,200 -389 Descending Orlando TRACON
Thu 09:54:05 AM 28.2000 -80.7000 300° West 116 133 3,000 -150 Descending Orlando TRACON
Thu 09:55:05 AM 28.2167 -80.7167 319° Northwest 115 132 2,900  Descending Orlando TRACON
Thu 09:56:06 AM 28.2500 -80.7500 319° Northwest 118 136 3,000 -99 Climbing Orlando TRACON
Thu 09:57:06 AM 28.2667 -80.7667 319° Northwest 112 129 2,700 -400 Descending Orlando TRACON
Thu 09:58:06 AM 28.3000 -80.7833 336° Northwest 113 130 2,200 -316 Descending Orlando TRACON
Thu 09:59:00 AM 28.3167 -80.8000 319° Northwest 115 132 2,100 -50 Descending Orlando TRACON
Thu 10:00:06 AM 28.3333 -80.8167 319° Northwest 113 130 2,100  Level Orlando TRACON
Thu 10:01:00 AM 28.3333 -80.8333 270° West 105 121 2,100 47 Level Orlando TRACON
Thu 10:02:13 AM 28.3500 -80.8000 60° Northeast 120 138 2,200  Climbing Orlando TRACON
Thu 10:03:07 AM 28.3667 -80.8000 360° North 111 128 2,100 -56 Descending Orlando TRACON
Thu 10:04:01 AM 28.4000 -80.8000 360° North 108 124 2,100 -263 Level Orlando TRACON
Thu 10:05:01 AM 28.4333 -80.8000 360° North 93 107 1,600 -455 Descending Orlando TRACON
Thu 10:06:13 AM 28.4500 -80.8000 360° North 79 91 1,100 -446 Descending Orlando TRACON
Thu 10:07:02 AM 28.4667 -80.8000 360° North 76 87 700 -142 Descending Orlando TRACON
Thu 10:09:02 AM 28.5167 -80.8000 360° North 88 101 700 226 Level Orlando TRACON
Thu 10:10:08 AM 28.5167 -80.8333 270° West 85 98 1,400 550 Climbing Orlando TRACON
Thu 10:11:02 AM 28.5167 -80.8667 270° West 91 105 1,800 476 Climbing Orlando TRACON
Thu 10:12:14 AM 28.4833 -80.8833 204° Southwest 85 98 2,400 500 Climbing Orlando TRACON

Login

Don't have an account? Register now (free) for customized features, flight alerts, and more!